Fesco Vladimir — 5BSL2 — position and weather

sailwx.info

Track history (hours):
 
Tides and Currents Weather Stations Pressure Air Temp Water Temp Dewpoint Dewpoint Depression Visibility Wind Speed Wind Dir Waves Ship Positions

Fesco Vladimir

Last reported at 2017-May-29 08:28 UTC. Time now 2017-May-29 09:48 UTC.
Position N 59°48' E 025°05'.

Length 184 m; draft 9.8 m.

Type: Ship (hazmat cat A). MMSI: 209777000.

Date/timePositionNaut miles runAvg speedWind from/ knotsBaromVisibWave heightAir tempDewpointWater temp
2017-May-29 08:28N 59°48' E 025°05'3015.7
2017-May-29 06:33N 59°40' E 024°07'215.8
2017-May-29 06:26N 59°40' E 024°04'715.6
2017-May-29 06:00N 59°37' E 023°51'815.8
2017-May-29 05:30N 59°35' E 023°36'815.8
2017-May-29 05:00N 59°32' E 023°21'815.8
2017-May-29 04:30N 59°30' E 023°07'915.9
2017-May-29 03:58N 59°27' E 022°50'24615.7
2017-May-28 12:20N 56°26' E 017°38'516.1
2017-May-28 12:01N 56°23' E 017°30'1016.1
2017-May-28 11:24N 56°17' E 017°16'616.2
2017-May-28 11:00N 56°13' E 017°07'816.0
2017-May-28 10:30N 56°08' E 016°55'816.1
2017-May-28 10:00N 56°04' E 016°44'816.1
2017-May-28 09:30N 55°59' E 016°32'816.1
2017-May-28 09:00N 55°54' E 016°20'816.1
2017-May-28 08:30N 55°50' E 016°08'816.1
2017-May-28 08:01N 55°47' E 015°55'816.0
2017-May-28 07:30N 55°43' E 015°43'815.9
2017-May-28 07:01N 55°39' E 015°31'816.1
2017-May-28 06:30N 55°35' E 015°18'816.2
2017-May-28 06:01N 55°31' E 015°05'816.4
2017-May-28 05:30N 55°28' E 014°52'816.2
2017-May-28 05:00N 55°23' E 014°40'816.0
2017-May-28 04:30N 55°18' E 014°30'815.9
2017-May-28 04:01N 55°11' E 014°22'815.9
2017-May-28 03:30N 55°05' E 014°13'815.8
2017-May-28 03:00N 54°59' E 014°04'816.3
2017-May-28 02:30N 54°57' E 013°50'815.6
2017-May-28 02:00N 54°54' E 013°37'815.7
2017-May-28 01:30N 54°52' E 013°24'815.8
2017-May-28 01:00N 54°50' E 013°11'815.4
2017-May-28 00:29N 54°47' E 012°58'715.4
2017-May-28 00:00N 54°45' E 012°45'1014.9
2017-May-27 23:21N 54°40' E 012°31'514.2
2017-May-27 23:00N 54°37' E 012°24'3612.2
2017-May-27 20:04N 54°32' E 011°23'214.9
2017-May-27 19:56N 54°33' E 011°20'614.8
2017-May-27 19:30N 54°35' E 011°10'714.3
2017-May-27 19:00N 54°39' E 010°59'611.9
2017-May-27 18:31N 54°43' E 010°51'612.4
2017-May-27 18:00N 54°49' E 010°52'612.5
2017-May-27 17:30N 54°55' E 010°53'612.7
2017-May-27 17:01N 54°60' E 011°01'713.0
2017-May-27 16:30N 55°06' E 011°02'612.6
2017-May-27 16:01N 55°12' E 011°06'612.6
2017-May-27 15:30N 55°18' E 011°02'612.2
2017-May-27 15:00N 55°24' E 010°59'2612.0
2017-May-27 12:49N 55°50' E 010°49'412.8
2017-May-27 12:30N 55°53' E 010°53'1812.6
2017-May-27 11:02N 56°08' E 011°12'012.8
2017-May-27 11:00N 56°08' E 011°12'712.7
2017-May-27 10:25N 56°14' E 011°20'1514.9
2017-May-27 09:23N 56°28' E 011°34'615.3
2017-May-27 08:59N 56°33' E 011°40'815.4
2017-May-27 08:28N 56°40' E 011°47'715.6
2017-May-27 08:00N 56°47' E 011°51'816.2
2017-May-27 07:31N 56°54' E 011°47'816.2
2017-May-27 07:01N 57°02' E 011°41'916.0
2017-May-27 06:27N 57°10' E 011°36'716.6
2017-May-27 06:00N 57°17' E 011°31'816.2
2017-May-27 05:30N 57°25' E 011°26'815.7
2017-May-27 05:00N 57°31' E 011°17'816.3
2017-May-27 04:30N 57°37' E 011°06'816.1
2017-May-27 04:00N 57°42' E 010°55'815.9
2017-May-27 03:30N 57°47' E 010°43'817.1
2017-May-27 03:00N 57°47' E 010°27'816.9
2017-May-27 02:30N 57°47' E 010°11'816.7
2017-May-27 02:00N 57°45' E 009°56'816.1
2017-May-27 01:30N 57°43' E 009°41'816.1
2017-May-27 01:00N 57°40' E 009°27'816.3
2017-May-27 00:30N 57°38' E 009°12'816.0
2017-May-27 00:00N 57°33' E 008°60'816.0
2017-May-26 23:30N 57°28' E 008°48'815.8
2017-May-26 23:00N 57°23' E 008°37'2015.7
2017-May-26 21:43N 57°10' E 008°08'1015.6
2017-May-26 21:05N 57°02' E 007°60'7515.7
2017-May-26 16:20N 55°54' E 007°03'515.9
2017-May-26 16:01N 55°49' E 007°00'816.0
2017-May-26 15:30N 55°41' E 006°56'815.9
2017-May-26 15:00N 55°33' E 006°51'1615.8
2017-May-26 14:00N 55°18' E 006°43'816.0
2017-May-26 13:30N 55°11' E 006°45'816.2
2017-May-26 13:00N 55°03' E 006°48'816.2
2017-May-26 12:30N 54°55' E 006°51'816.1
2017-May-26 12:00N 54°47' E 006°56'815.9
2017-May-26 11:30N 54°41' E 007°04'1415.6
2017-May-26 10:37N 54°29' E 007°15'215.3
2017-May-26 10:29N 54°27' E 007°18'815.1
2017-May-26 09:56N 54°21' E 007°27'714.9
2017-May-26 09:29N 54°16' E 007°35'1314.7
2017-May-26 08:38N 54°07' E 007°51'1414.3
2017-May-26 07:40N 54°01' E 008°11'312.2
2017-May-26 07:26N 54°00' E 008°16'715.1
2017-May-26 07:00N 53°59' E 008°27'816.3
2017-May-26 06:30N 53°56' E 008°40'815.7
2017-May-26 06:00N 53°50' E 008°49'918.1
2017-May-26 05:30N 53°52' E 009°04'713.1
2017-May-26 05:00N 53°53' E 009°15'917.2
2017-May-26 04:31N 53°46' E 009°24'816.2
2017-May-26 04:01N 53°39' E 009°31'714.8
2017-May-26 03:30N 53°34' E 009°41'612.0
2017-May-26 03:00N 53°33' E 009°50'3 5.1
2017-May-26 02:30N 53°32' E 009°55'0 0.1
2017-May-26 01:59N 53°32' E 009°55'0 0.0
2017-May-26 01:29N 53°32' E 009°55'0 0.0
2017-May-26 00:59N 53°32' E 009°55'0 0.0
2017-May-26 00:29N 53°32' E 009°55'0 0.0
2017-May-25 23:59N 53°32' E 009°55'0 0.0
2017-May-25 23:29N 53°32' E 009°55'0 0.0
2017-May-25 22:59N 53°32' E 009°55'0 0.0
2017-May-25 22:29N 53°32' E 009°55'0 0.0
2017-May-25 21:59N 53°32' E 009°55'0 0.0
2017-May-25 21:29N 53°32' E 009°55'0 0.0
2017-May-25 20:59N 53°32' E 009°55'0 0.0
2017-May-25 20:29N 53°32' E 009°55'0 0.0
2017-May-25 19:59N 53°32' E 009°55'0 0.0
2017-May-25 19:29N 53°32' E 009°55'0 0.0
2017-May-25 18:59N 53°32' E 009°55'0 0.0
2017-May-25 18:29N 53°32' E 009°55'0 0.0
2017-May-25 17:59N 53°32' E 009°55'0 0.0
2017-May-25 17:29N 53°32' E 009°55'0 0.0
2017-May-25 16:59N 53°32' E 009°55'0 0.0
2017-May-25 16:29N 53°32' E 009°55'0 0.0
2017-May-25 15:59N 53°32' E 009°55'0 0.0
2017-May-25 15:29N 53°32' E 009°55'0 0.0
2017-May-25 14:59N 53°32' E 009°55'0 0.0
2017-May-25 14:29N 53°32' E 009°55'0 0.0
2017-May-25 13:29N 53°32' E 009°55'0 0.0
2017-May-25 12:59N 53°32' E 009°55'0 0.0
2017-May-25 12:29N 53°32' E 009°55'0 0.0
2017-May-25 11:59N 53°32' E 009°55'0 0.0
2017-May-25 11:29N 53°32' E 009°55'0 0.0
2017-May-25 10:59N 53°32' E 009°55'0 0.0
2017-May-25 10:29N 53°32' E 009°55'0 0.0
2017-May-25 09:59N 53°32' E 009°55'0 0.0
2017-May-25 09:29N 53°32' E 009°55'0 0.0
2017-May-25 08:59N 53°32' E 009°55'0 0.0
2017-May-25 08:29N 53°32' E 009°55'0 0.0
2017-May-25 07:59N 53°32' E 009°55'0 0.0
2017-May-25 07:29N 53°32' E 009°55'0 0.0
2017-May-25 06:59N 53°32' E 009°55'0 0.0
2017-May-25 06:29N 53°32' E 009°55'0 0.0
2017-May-25 05:59N 53°32' E 009°55'0 0.0
2017-May-25 05:29N 53°32' E 009°55'0 0.0
2017-May-25 04:59N 53°32' E 009°55'1 1.1
2017-May-25 04:31N 53°33' E 009°54'2 4.1
2017-May-25 04:01N 53°32' E 009°57'0 0.0
2017-May-25 03:29N 53°32' E 009°57'0 0.0
2017-May-25 02:59N 53°32' E 009°57'0 0.0
2017-May-25 02:29N 53°32' E 009°57'0 0.0
2017-May-25 02:00N 53°32' E 009°57'0 0.0
2017-May-25 01:29N 53°32' E 009°57'0 0.0
2017-May-25 01:00N 53°32' E 009°57'0 0.0
2017-May-25 00:29N 53°32' E 009°57'0 0.0
2017-May-24 23:59N 53°32' E 009°57'0 0.0
2017-May-24 23:29N 53°32' E 009°57'0 0.0
2017-May-24 22:59N 53°32' E 009°57'0 0.0
2017-May-24 22:29N 53°32' E 009°57'0 0.2
2017-May-24 22:00N 53°32' E 009°57'1 2.7
2017-May-24 21:30N 53°31' E 009°56'0 0.5
2017-May-24 21:00N 53°31' E 009°56'0 0.0
2017-May-24 20:30N 53°31' E 009°56'0 0.0
2017-May-24 20:00N 53°31' E 009°56'0 0.0
2017-May-24 19:30N 53°31' E 009°56'0 0.0
2017-May-24 19:00N 53°31' E 009°56'0 0.0
2017-May-24 18:30N 53°31' E 009°56'0 0.0
2017-May-24 18:00N 53°31' E 009°56'0 0.0
2017-May-24 17:30N 53°31' E 009°56'0 0.0
2017-May-24 17:00N 53°31' E 009°56'2 3.4
2017-May-24 16:30N 53°32' E 009°56'3 6.4
2017-May-24 16:00N 53°33' E 009°51'4 7.7
2017-May-24 15:30N 53°34' E 009°44'510.2
2017-May-24 15:00N 53°35' E 009°36'510.5
2017-May-24 14:30N 53°40' E 009°31'1313.1
2017-May-24 13:31N 53°51' E 009°19'713.5
2017-May-24 13:00N 53°53' E 009°08'510.7
2017-May-24 12:31N 53°51' E 008°60'713.1
2017-May-24 12:00N 53°50' E 008°49'612.1
2017-May-24 11:30N 53°54' E 008°41'713.4
2017-May-24 10:58N 53°58' E 008°31'713.6
2017-May-24 10:29N 53°59' E 008°20'612.4
2017-May-24 10:00N 53°59' E 008°10'4 7.7
2017-May-24 09:27N 53°59' E 008°02'6313.2
2017-May-24 04:42N 53°45' E 006°19'416.5
2017-May-24 04:27N 53°43' E 006°12'716.4
2017-May-24 04:00N 53°41' E 006°01'816.3
2017-May-24 03:30N 53°38' E 005°47'1016.3
2017-May-24 02:54N 53°35' E 005°32'716.3
2017-May-24 02:29N 53°33' E 005°21'816.2
2017-May-24 02:00N 53°30' E 005°09'816.1
2017-May-24 01:30N 53°27' E 004°56'815.8
2017-May-24 01:00N 53°24' E 004°44'815.6
2017-May-24 00:31N 53°17' E 004°37'815.5
2017-May-24 00:01N 53°11' E 004°31'815.6
2017-May-23 23:30N 53°04' E 004°24'815.5
2017-May-23 23:01N 52°57' E 004°18'815.5
2017-May-23 22:31N 52°50' E 004°12'815.3
2017-May-23 22:00N 52°44' E 004°06'815.1
2017-May-23 21:30N 52°37' E 003°59'714.9
2017-May-23 21:00N 52°30' E 003°54'815.3
2017-May-23 20:31N 52°23' E 003°53'815.2
2017-May-23 20:01N 52°15' E 003°53'815.3
2017-May-23 19:31N 52°08' E 003°54'611.5
2017-May-23 19:00N 52°02' E 003°55'611.7
2017-May-23 18:31N 51°59' E 004°03'2 4.7
2017-May-23 18:00N 51°57' E 004°04'0 0.7
2017-May-23 17:28N 51°57' E 004°04'0 0.0
2017-May-23 16:58N 51°57' E 004°04'0 0.0
2017-May-23 16:28N 51°57' E 004°04'0 0.0
2017-May-23 15:58N 51°57' E 004°04'0 0.0
2017-May-23 15:28N 51°57' E 004°04'0 0.0
2017-May-23 14:58N 51°57' E 004°04'0 0.0
2017-May-23 13:58N 51°57' E 004°04'0 0.0
2017-May-23 13:28N 51°57' E 004°04'0 0.0
2017-May-23 12:58N 51°57' E 004°04'0 0.0
2017-May-23 12:28N 51°57' E 004°04'0 0.0
2017-May-23 11:58N 51°57' E 004°04'0 0.0
2017-May-23 11:28N 51°57' E 004°04'0 0.0
2017-May-23 10:58N 51°57' E 004°04'0 0.0
2017-May-23 10:28N 51°57' E 004°04'0 0.0
2017-May-23 10:00N 51°57' E 004°04'1 2.4
2017-May-23 09:30N 51°58' E 004°05'3 6.8
2017-May-23 09:00N 51°60' E 004°01'713.1
2017-May-23 08:31N 52°01' E 003°50'3 6.5
2017-May-23 08:01N 52°04' E 003°47'713.5
2017-May-23 07:30N 52°10' E 003°46'714.1
2017-May-23 07:00N 52°17' E 003°47'714.3
2017-May-23 06:30N 52°24' E 003°49'816.7
2017-May-23 06:00N 52°33' E 003°52'917.2
2017-May-23 05:30N 52°41' E 003°55'816.9
2017-May-23 05:00N 52°49' E 003°57'816.0
2017-May-23 04:30N 52°57' E 004°00'815.0
2017-May-23 04:00N 53°02' E 004°09'714.6
2017-May-23 03:30N 53°07' E 004°19'713.5
2017-May-23 03:00N 53°12' E 004°26'713.7
2017-May-23 02:30N 53°19' E 004°30'713.9
2017-May-23 02:00N 53°25' E 004°34'612.8
2017-May-23 01:30N 53°30' E 004°42'714.9
2017-May-23 01:00N 53°32' E 004°54'815.6
2017-May-23 00:30N 53°34' E 005°06'816.5
2017-May-23 00:00N 53°37' E 005°19'816.9
2017-May-22 23:30N 53°40' E 005°33'8216.0
2017-May-22 18:20N 53°52' E 007°51'3 9.4
2017-May-22 17:59N 53°49' E 007°55'1611.2
2017-May-22 16:31N 53°35' E 008°09'0 0.6
2017-May-22 16:28N 53°35' E 008°09'0 0.0
2017-May-22 15:49N 53°35' E 008°09'0 0.0
2017-May-22 15:25N 53°35' E 008°09'0 0.0
2017-May-22 12:07N 53°35' E 008°09'0 0.0
2017-May-22 10:22N 53°35' E 008°09'0 0.0
2017-May-22 09:22N 53°35' E 008°09'0 0.0
2017-May-22 08:37N 53°35' E 008°09'0 0.0
2017-May-22 07:43N 53°35' E 008°09'0 0.0
2017-May-22 07:28N 53°35' E 008°09'0 0.2
2017-May-22 07:00N 53°35' E 008°09'4 8.7
2017-May-22 06:31N 53°39' E 008°07'917.1
2017-May-22 05:58N 53°48' E 008°01'714.9
2017-May-22 05:30N 53°52' E 007°51'510.2
2017-May-22 04:59N 53°55' E 007°44'1313.9
2017-May-22 04:02N 54°01' E 008°04'115.6
2017-May-22 04:00N 54°01' E 008°05'712.5
2017-May-22 03:26N 54°00' E 008°17'716.5
2017-May-22 02:59N 53°59' E 008°29'816.6
2017-May-22 02:30N 53°55' E 008°41'714.5
2017-May-22 02:00N 53°50' E 008°51'918.4
2017-May-22 01:30N 53°53' E 009°06'2 3.6
2017-May-22 01:01N 53°54' E 009°09'1 1.4
2017-May-22 00:30N 53°54' E 009°10'3 5.9
2017-May-22 00:00N 53°56' E 009°13'3 6.5
2017-May-21 23:30N 53°59' E 009°17'3 6.3
2017-May-21 23:00N 54°02' E 009°18'3 6.7
2017-May-21 22:30N 54°05' E 009°19'4 6.7
2017-May-21 21:58N 54°09' E 009°21'3 6.2
2017-May-21 21:30N 54°10' E 009°25'4 7.1
2017-May-21 21:00N 54°11' E 009°31'4 6.8
2017-May-21 20:29N 54°13' E 009°36'34 5.1
2017-May-21 13:43N 54°32' E 010°26'3 7.4
2017-May-21 13:19N 54°33' E 010°30'1 3.2
2017-May-21 12:56N 54°34' E 010°32'1 1.4
2017-May-21 12:29N 54°34' E 010°33'4 5.2
2017-May-21 11:45N 54°35' E 010°40'1 5.9
2017-May-21 11:30N 54°35' E 010°42'0 1.0
2017-May-21 11:00N 54°35' E 010°43'1 2.3
2017-May-21 10:30N 54°35' E 010°45'3 6.0
2017-May-21 10:00N 54°35' E 010°50'2 5.0
2017-May-21 09:30N 54°35' E 010°55'4 8.4
2017-May-21 09:00N 54°36' E 011°02'714.7
2017-May-21 08:30N 54°35' E 011°14'815.4
2017-May-21 08:00N 54°32' E 011°26'1415.5
2017-May-21 07:06N 54°26' E 011°49'115.3
2017-May-21 07:00N 54°26' E 011°51'1312.8
2017-May-21 06:01N 54°29' E 012°12'013.3
2017-May-21 06:00N 54°29' E 012°12'713.4
2017-May-21 05:31N 54°35' E 012°16'1212.8
2017-May-21 04:34N 54°43' E 012°32'313.5
2017-May-21 04:22N 54°45' E 012°36'713.2
2017-May-21 03:52N 54°48' E 012°46'813.4
2017-May-21 03:16N 54°50' E 012°59'613.3
2017-May-21 02:48N 54°53' E 013°09'413.2
2017-May-21 02:28N 54°54' E 013°16'713.5
2017-May-21 01:58N 54°57' E 013°27'613.3
2017-May-21 01:29N 54°59' E 013°37'613.3
2017-May-21 01:00N 55°01' E 013°48'713.1
2017-May-21 00:29N 55°03' E 013°59'612.7
2017-May-21 00:00N 55°07' E 014°08'713.4
2017-May-20 23:31N 55°12' E 014°15'713.5
2017-May-20 23:00N 55°17' E 014°23'815.9
2017-May-20 22:31N 55°23' E 014°32'816.1
2017-May-20 22:00N 55°29' E 014°42'815.7
2017-May-20 21:30N 55°32' E 014°54'815.6
2017-May-20 21:00N 55°36' E 015°06'815.5
2017-May-20 20:30N 55°40' E 015°18'815.7
2017-May-20 20:00N 55°44' E 015°30'815.5
2017-May-20 19:30N 55°48' E 015°42'815.5
2017-May-20 19:00N 55°52' E 015°54'816.0
2017-May-20 18:30N 55°55' E 016°07'815.8
2017-May-20 18:00N 55°59' E 016°19'816.0
2017-May-20 17:30N 56°03' E 016°31'816.0
2017-May-20 17:00N 56°08' E 016°43'816.2
2017-May-20 16:30N 56°12' E 016°55'816.2
2017-May-20 16:00N 56°17' E 017°07'816.1
2017-May-20 15:30N 56°22' E 017°18'816.1
2017-May-20 15:00N 56°27' E 017°29'816.2
2017-May-20 14:30N 56°32' E 017°41'22416.0
2017-May-20 00:30N 59°23' E 022°15'1016.0
2017-May-19 23:53N 59°29' E 022°31'915.6
2017-May-19 23:19N 59°32' E 022°47'515.8
2017-May-19 23:00N 59°34' E 022°57'815.8
2017-May-19 22:30N 59°36' E 023°12'815.8
2017-May-19 22:00N 59°38' E 023°27'815.7
2017-May-19 21:30N 59°41' E 023°41'815.8
2017-May-19 21:00N 59°43' E 023°56'815.6
2017-May-19 20:30N 59°45' E 024°11'815.6
2017-May-19 20:00N 59°47' E 024°26'4515.3
2017-May-19 17:05N 59°56' E 025°54'115.0
2017-May-19 17:00N 59°57' E 025°56'1014.9
2017-May-19 16:19N 59°59' E 026°16'515.2
2017-May-19 15:59N 60°00' E 026°26'715.1
2017-May-19 15:30N 60°01' E 026°40'815.5
2017-May-19 15:00N 59°60' E 026°55'1514.6
2017-May-19 14:00N 60°05' E 027°22'815.4
2017-May-19 13:30N 60°09' E 027°36'714.8
2017-May-19 13:00N 60°12' E 027°50'915.7
2017-May-19 12:27N 60°09' E 028°06'715.3
2017-May-19 12:00N 60°07' E 028°19'815.4
2017-May-19 11:30N 60°03' E 028°33'815.6
2017-May-19 11:00N 60°03' E 028°48'815.9
2017-May-19 10:30N 60°02' E 029°04'816.0
2017-May-19 10:00N 60°02' E 029°20'510.7
2017-May-19 09:30N 60°01' E 029°31'612.4
2017-May-19 09:01N 59°59' E 029°43'3 5.9
2017-May-19 08:30N 59°56' E 029°43'  
Track history (hours):
 
Tides and Currents Weather Stations Pressure Air Temp Water Temp Dewpoint Dewpoint Depression Visibility Wind Speed Wind Dir Waves Ship Positions

Fesco Vladimir

Last reported at 2017-May-29 08:28 UTC. Time now 2017-May-29 09:48 UTC.
Position N 59°48' E 025°05'.

Length 184 m; draft 9.8 m.

Type: Ship (hazmat cat A). MMSI: 209777000.

Date/timePositionNaut miles runAvg speedWind from/ knotsBaromVisibWave heightAir tempDewpointWater temp
2017-May-29 08:28N 59°48' E 025°05'3015.7
2017-May-29 06:33N 59°40' E 024°07'215.8
2017-May-29 06:26N 59°40' E 024°04'715.6
2017-May-29 06:00N 59°37' E 023°51'815.8
2017-May-29 05:30N 59°35' E 023°36'815.8
2017-May-29 05:00N 59°32' E 023°21'815.8
2017-May-29 04:30N 59°30' E 023°07'915.9
2017-May-29 03:58N 59°27' E 022°50'24615.7
2017-May-28 12:20N 56°26' E 017°38'516.1
2017-May-28 12:01N 56°23' E 017°30'1016.1
2017-May-28 11:24N 56°17' E 017°16'616.2
2017-May-28 11:00N 56°13' E 017°07'816.0
2017-May-28 10:30N 56°08' E 016°55'816.1
2017-May-28 10:00N 56°04' E 016°44'816.1
2017-May-28 09:30N 55°59' E 016°32'816.1
2017-May-28 09:00N 55°54' E 016°20'816.1
2017-May-28 08:30N 55°50' E 016°08'816.1
2017-May-28 08:01N 55°47' E 015°55'816.0
2017-May-28 07:30N 55°43' E 015°43'815.9
2017-May-28 07:01N 55°39' E 015°31'816.1
2017-May-28 06:30N 55°35' E 015°18'816.2
2017-May-28 06:01N 55°31' E 015°05'816.4
2017-May-28 05:30N 55°28' E 014°52'816.2
2017-May-28 05:00N 55°23' E 014°40'816.0
2017-May-28 04:30N 55°18' E 014°30'815.9
2017-May-28 04:01N 55°11' E 014°22'815.9
2017-May-28 03:30N 55°05' E 014°13'815.8
2017-May-28 03:00N 54°59' E 014°04'816.3
2017-May-28 02:30N 54°57' E 013°50'815.6
2017-May-28 02:00N 54°54' E 013°37'815.7
2017-May-28 01:30N 54°52' E 013°24'815.8
2017-May-28 01:00N 54°50' E 013°11'815.4
2017-May-28 00:29N 54°47' E 012°58'715.4
2017-May-28 00:00N 54°45' E 012°45'1014.9
2017-May-27 23:21N 54°40' E 012°31'514.2
2017-May-27 23:00N 54°37' E 012°24'3612.2
2017-May-27 20:04N 54°32' E 011°23'214.9
2017-May-27 19:56N 54°33' E 011°20'614.8
2017-May-27 19:30N 54°35' E 011°10'714.3
2017-May-27 19:00N 54°39' E 010°59'611.9
2017-May-27 18:31N 54°43' E 010°51'612.4
2017-May-27 18:00N 54°49' E 010°52'612.5
2017-May-27 17:30N 54°55' E 010°53'612.7
2017-May-27 17:01N 54°60' E 011°01'713.0
2017-May-27 16:30N 55°06' E 011°02'612.6
2017-May-27 16:01N 55°12' E 011°06'612.6
2017-May-27 15:30N 55°18' E 011°02'612.2
2017-May-27 15:00N 55°24' E 010°59'2612.0
2017-May-27 12:49N 55°50' E 010°49'412.8
2017-May-27 12:30N 55°53' E 010°53'1812.6
2017-May-27 11:02N 56°08' E 011°12'012.8
2017-May-27 11:00N 56°08' E 011°12'712.7
2017-May-27 10:25N 56°14' E 011°20'1514.9
2017-May-27 09:23N 56°28' E 011°34'615.3
2017-May-27 08:59N 56°33' E 011°40'815.4
2017-May-27 08:28N 56°40' E 011°47'715.6
2017-May-27 08:00N 56°47' E 011°51'816.2
2017-May-27 07:31N 56°54' E 011°47'816.2
2017-May-27 07:01N 57°02' E 011°41'916.0
2017-May-27 06:27N 57°10' E 011°36'716.6
2017-May-27 06:00N 57°17' E 011°31'816.2
2017-May-27 05:30N 57°25' E 011°26'815.7
2017-May-27 05:00N 57°31' E 011°17'816.3
2017-May-27 04:30N 57°37' E 011°06'816.1
2017-May-27 04:00N 57°42' E 010°55'815.9
2017-May-27 03:30N 57°47' E 010°43'817.1
2017-May-27 03:00N 57°47' E 010°27'816.9
2017-May-27 02:30N 57°47' E 010°11'816.7
2017-May-27 02:00N 57°45' E 009°56'816.1
2017-May-27 01:30N 57°43' E 009°41'816.1
2017-May-27 01:00N 57°40' E 009°27'816.3
2017-May-27 00:30N 57°38' E 009°12'816.0
2017-May-27 00:00N 57°33' E 008°60'816.0
2017-May-26 23:30N 57°28' E 008°48'815.8
2017-May-26 23:00N 57°23' E 008°37'2015.7
2017-May-26 21:43N 57°10' E 008°08'1015.6
2017-May-26 21:05N 57°02' E 007°60'7515.7
2017-May-26 16:20N 55°54' E 007°03'515.9
2017-May-26 16:01N 55°49' E 007°00'816.0
2017-May-26 15:30N 55°41' E 006°56'815.9
2017-May-26 15:00N 55°33' E 006°51'1615.8
2017-May-26 14:00N 55°18' E 006°43'816.0
2017-May-26 13:30N 55°11' E 006°45'816.2
2017-May-26 13:00N 55°03' E 006°48'816.2
2017-May-26 12:30N 54°55' E 006°51'816.1
2017-May-26 12:00N 54°47' E 006°56'815.9
2017-May-26 11:30N 54°41' E 007°04'1415.6
2017-May-26 10:37N 54°29' E 007°15'215.3
2017-May-26 10:29N 54°27' E 007°18'815.1
2017-May-26 09:56N 54°21' E 007°27'714.9
2017-May-26 09:29N 54°16' E 007°35'1314.7
2017-May-26 08:38N 54°07' E 007°51'1414.3
2017-May-26 07:40N 54°01' E 008°11'312.2
2017-May-26 07:26N 54°00' E 008°16'715.1
2017-May-26 07:00N 53°59' E 008°27'816.3
2017-May-26 06:30N 53°56' E 008°40'815.7
2017-May-26 06:00N 53°50' E 008°49'918.1
2017-May-26 05:30N 53°52' E 009°04'713.1
2017-May-26 05:00N 53°53' E 009°15'917.2
2017-May-26 04:31N 53°46' E 009°24'816.2
2017-May-26 04:01N 53°39' E 009°31'714.8
2017-May-26 03:30N 53°34' E 009°41'612.0
2017-May-26 03:00N 53°33' E 009°50'3 5.1
2017-May-26 02:30N 53°32' E 009°55'0 0.1
2017-May-26 01:59N 53°32' E 009°55'0 0.0
2017-May-26 01:29N 53°32' E 009°55'0 0.0
2017-May-26 00:59N 53°32' E 009°55'0 0.0
2017-May-26 00:29N 53°32' E 009°55'0 0.0
2017-May-25 23:59N 53°32' E 009°55'0 0.0
2017-May-25 23:29N 53°32' E 009°55'0 0.0
2017-May-25 22:59N 53°32' E 009°55'0 0.0
2017-May-25 22:29N 53°32' E 009°55'0 0.0
2017-May-25 21:59N 53°32' E 009°55'0 0.0
2017-May-25 21:29N 53°32' E 009°55'0 0.0
2017-May-25 20:59N 53°32' E 009°55'0 0.0
2017-May-25 20:29N 53°32' E 009°55'0 0.0
2017-May-25 19:59N 53°32' E 009°55'0 0.0
2017-May-25 19:29N 53°32' E 009°55'0 0.0
2017-May-25 18:59N 53°32' E 009°55'0 0.0
2017-May-25 18:29N 53°32' E 009°55'0 0.0
2017-May-25 17:59N 53°32' E 009°55'0 0.0
2017-May-25 17:29N 53°32' E 009°55'0 0.0
2017-May-25 16:59N 53°32' E 009°55'0 0.0
2017-May-25 16:29N 53°32' E 009°55'0 0.0
2017-May-25 15:59N 53°32' E 009°55'0 0.0
2017-May-25 15:29N 53°32' E 009°55'0 0.0
2017-May-25 14:59N 53°32' E 009°55'0 0.0
2017-May-25 14:29N 53°32' E 009°55'0 0.0
2017-May-25 13:29N 53°32' E 009°55'0 0.0
2017-May-25 12:59N 53°32' E 009°55'0 0.0
2017-May-25 12:29N 53°32' E 009°55'0 0.0
2017-May-25 11:59N 53°32' E 009°55'0 0.0
2017-May-25 11:29N 53°32' E 009°55'0 0.0
2017-May-25 10:59N 53°32' E 009°55'0 0.0
2017-May-25 10:29N 53°32' E 009°55'0 0.0
2017-May-25 09:59N 53°32' E 009°55'0 0.0
2017-May-25 09:29N 53°32' E 009°55'0 0.0
2017-May-25 08:59N 53°32' E 009°55'0 0.0
2017-May-25 08:29N 53°32' E 009°55'0 0.0
2017-May-25 07:59N 53°32' E 009°55'0 0.0
2017-May-25 07:29N 53°32' E 009°55'0 0.0
2017-May-25 06:59N 53°32' E 009°55'0 0.0
2017-May-25 06:29N 53°32' E 009°55'0 0.0
2017-May-25 05:59N 53°32' E 009°55'0 0.0
2017-May-25 05:29N 53°32' E 009°55'0 0.0
2017-May-25 04:59N 53°32' E 009°55'1 1.1
2017-May-25 04:31N 53°33' E 009°54'2 4.1
2017-May-25 04:01N 53°32' E 009°57'0 0.0
2017-May-25 03:29N 53°32' E 009°57'0 0.0
2017-May-25 02:59N 53°32' E 009°57'0 0.0
2017-May-25 02:29N 53°32' E 009°57'0 0.0
2017-May-25 02:00N 53°32' E 009°57'0 0.0
2017-May-25 01:29N 53°32' E 009°57'0 0.0
2017-May-25 01:00N 53°32' E 009°57'0 0.0
2017-May-25 00:29N 53°32' E 009°57'0 0.0
2017-May-24 23:59N 53°32' E 009°57'0 0.0
2017-May-24 23:29N 53°32' E 009°57'0 0.0
2017-May-24 22:59N 53°32' E 009°57'0 0.0
2017-May-24 22:29N 53°32' E 009°57'0 0.2
2017-May-24 22:00N 53°32' E 009°57'1 2.7
2017-May-24 21:30N 53°31' E 009°56'0 0.5
2017-May-24 21:00N 53°31' E 009°56'0 0.0
2017-May-24 20:30N 53°31' E 009°56'0 0.0
2017-May-24 20:00N 53°31' E 009°56'0 0.0
2017-May-24 19:30N 53°31' E 009°56'0 0.0
2017-May-24 19:00N 53°31' E 009°56'0 0.0
2017-May-24 18:30N 53°31' E 009°56'0 0.0
2017-May-24 18:00N 53°31' E 009°56'0 0.0
2017-May-24 17:30N 53°31' E 009°56'0 0.0
2017-May-24 17:00N 53°31' E 009°56'2 3.4
2017-May-24 16:30N 53°32' E 009°56'3 6.4
2017-May-24 16:00N 53°33' E 009°51'4 7.7
2017-May-24 15:30N 53°34' E 009°44'510.2
2017-May-24 15:00N 53°35' E 009°36'510.5
2017-May-24 14:30N 53°40' E 009°31'1313.1
2017-May-24 13:31N 53°51' E 009°19'713.5
2017-May-24 13:00N 53°53' E 009°08'510.7
2017-May-24 12:31N 53°51' E 008°60'713.1
2017-May-24 12:00N 53°50' E 008°49'612.1
2017-May-24 11:30N 53°54' E 008°41'713.4
2017-May-24 10:58N 53°58' E 008°31'713.6
2017-May-24 10:29N 53°59' E 008°20'612.4
2017-May-24 10:00N 53°59' E 008°10'4 7.7
2017-May-24 09:27N 53°59' E 008°02'6313.2
2017-May-24 04:42N 53°45' E 006°19'416.5
2017-May-24 04:27N 53°43' E 006°12'716.4
2017-May-24 04:00N 53°41' E 006°01'816.3
2017-May-24 03:30N 53°38' E 005°47'1016.3
2017-May-24 02:54N 53°35' E 005°32'716.3
2017-May-24 02:29N 53°33' E 005°21'816.2
2017-May-24 02:00N 53°30' E 005°09'816.1
2017-May-24 01:30N 53°27' E 004°56'815.8
2017-May-24 01:00N 53°24' E 004°44'815.6
2017-May-24 00:31N 53°17' E 004°37'815.5
2017-May-24 00:01N 53°11' E 004°31'815.6
2017-May-23 23:30N 53°04' E 004°24'815.5
2017-May-23 23:01N 52°57' E 004°18'815.5
2017-May-23 22:31N 52°50' E 004°12'815.3
2017-May-23 22:00N 52°44' E 004°06'815.1
2017-May-23 21:30N 52°37' E 003°59'714.9
2017-May-23 21:00N 52°30' E 003°54'815.3
2017-May-23 20:31N 52°23' E 003°53'815.2
2017-May-23 20:01N 52°15' E 003°53'815.3
2017-May-23 19:31N 52°08' E 003°54'611.5
2017-May-23 19:00N 52°02' E 003°55'611.7
2017-May-23 18:31N 51°59' E 004°03'2 4.7
2017-May-23 18:00N 51°57' E 004°04'0 0.7
2017-May-23 17:28N 51°57' E 004°04'0 0.0
2017-May-23 16:58N 51°57' E 004°04'0 0.0
2017-May-23 16:28N 51°57' E 004°04'0 0.0
2017-May-23 15:58N 51°57' E 004°04'0 0.0
2017-May-23 15:28N 51°57' E 004°04'0 0.0
2017-May-23 14:58N 51°57' E 004°04'0 0.0
2017-May-23 13:58N 51°57' E 004°04'0 0.0
2017-May-23 13:28N 51°57' E 004°04'0 0.0
2017-May-23 12:58N 51°57' E 004°04'0 0.0
2017-May-23 12:28N 51°57' E 004°04'0 0.0
2017-May-23 11:58N 51°57' E 004°04'0 0.0
2017-May-23 11:28N 51°57' E 004°04'0 0.0
2017-May-23 10:58N 51°57' E 004°04'0 0.0
2017-May-23 10:28N 51°57' E 004°04'0 0.0
2017-May-23 10:00N 51°57' E 004°04'1 2.4
2017-May-23 09:30N 51°58' E 004°05'3 6.8
2017-May-23 09:00N 51°60' E 004°01'713.1
2017-May-23 08:31N 52°01' E 003°50'3 6.5
2017-May-23 08:01N 52°04' E 003°47'713.5
2017-May-23 07:30N 52°10' E 003°46'714.1
2017-May-23 07:00N 52°17' E 003°47'714.3
2017-May-23 06:30N 52°24' E 003°49'816.7
2017-May-23 06:00N 52°33' E 003°52'917.2
2017-May-23 05:30N 52°41' E 003°55'816.9
2017-May-23 05:00N 52°49' E 003°57'816.0
2017-May-23 04:30N 52°57' E 004°00'815.0
2017-May-23 04:00N 53°02' E 004°09'714.6
2017-May-23 03:30N 53°07' E 004°19'713.5
2017-May-23 03:00N 53°12' E 004°26'713.7
2017-May-23 02:30N 53°19' E 004°30'713.9
2017-May-23 02:00N 53°25' E 004°34'612.8
2017-May-23 01:30N 53°30' E 004°42'714.9
2017-May-23 01:00N 53°32' E 004°54'815.6
2017-May-23 00:30N 53°34' E 005°06'816.5
2017-May-23 00:00N 53°37' E 005°19'816.9
2017-May-22 23:30N 53°40' E 005°33'8216.0
2017-May-22 18:20N 53°52' E 007°51'3 9.4
2017-May-22 17:59N 53°49' E 007°55'1611.2
2017-May-22 16:31N 53°35' E 008°09'0 0.6
2017-May-22 16:28N 53°35' E 008°09'0 0.0
2017-May-22 15:49N 53°35' E 008°09'0 0.0
2017-May-22 15:25N 53°35' E 008°09'0 0.0
2017-May-22 12:07N 53°35' E 008°09'0 0.0
2017-May-22 10:22N 53°35' E 008°09'0 0.0
2017-May-22 09:22N 53°35' E 008°09'0 0.0
2017-May-22 08:37N 53°35' E 008°09'0 0.0
2017-May-22 07:43N 53°35' E 008°09'0 0.0
2017-May-22 07:28N 53°35' E 008°09'0 0.2
2017-May-22 07:00N 53°35' E 008°09'4 8.7
2017-May-22 06:31N 53°39' E 008°07'917.1
2017-May-22 05:58N 53°48' E 008°01'714.9
2017-May-22 05:30N 53°52' E 007°51'510.2
2017-May-22 04:59N 53°55' E 007°44'1313.9
2017-May-22 04:02N 54°01' E 008°04'115.6
2017-May-22 04:00N 54°01' E 008°05'712.5
2017-May-22 03:26N 54°00' E 008°17'716.5
2017-May-22 02:59N 53°59' E 008°29'816.6
2017-May-22 02:30N 53°55' E 008°41'714.5
2017-May-22 02:00N 53°50' E 008°51'918.4
2017-May-22 01:30N 53°53' E 009°06'2 3.6
2017-May-22 01:01N 53°54' E 009°09'1 1.4
2017-May-22 00:30N 53°54' E 009°10'3 5.9
2017-May-22 00:00N 53°56' E 009°13'3 6.5
2017-May-21 23:30N 53°59' E 009°17'3 6.3
2017-May-21 23:00N 54°02' E 009°18'3 6.7
2017-May-21 22:30N 54°05' E 009°19'4 6.7
2017-May-21 21:58N 54°09' E 009°21'3 6.2
2017-May-21 21:30N 54°10' E 009°25'4 7.1
2017-May-21 21:00N 54°11' E 009°31'4 6.8
2017-May-21 20:29N 54°13' E 009°36'34 5.1
2017-May-21 13:43N 54°32' E 010°26'3 7.4
2017-May-21 13:19N 54°33' E 010°30'1 3.2
2017-May-21 12:56N 54°34' E 010°32'1 1.4
2017-May-21 12:29N 54°34' E 010°33'4 5.2
2017-May-21 11:45N 54°35' E 010°40'1 5.9
2017-May-21 11:30N 54°35' E 010°42'0 1.0
2017-May-21 11:00N 54°35' E 010°43'1 2.3
2017-May-21 10:30N 54°35' E 010°45'3 6.0
2017-May-21 10:00N 54°35' E 010°50'2 5.0
2017-May-21 09:30N 54°35' E 010°55'4 8.4
2017-May-21 09:00N 54°36' E 011°02'714.7
2017-May-21 08:30N 54°35' E 011°14'815.4
2017-May-21 08:00N 54°32' E 011°26'1415.5
2017-May-21 07:06N 54°26' E 011°49'115.3
2017-May-21 07:00N 54°26' E 011°51'1312.8
2017-May-21 06:01N 54°29' E 012°12'013.3
2017-May-21 06:00N 54°29' E 012°12'713.4
2017-May-21 05:31N 54°35' E 012°16'1212.8
2017-May-21 04:34N 54°43' E 012°32'313.5
2017-May-21 04:22N 54°45' E 012°36'713.2
2017-May-21 03:52N 54°48' E 012°46'813.4
2017-May-21 03:16N 54°50' E 012°59'613.3
2017-May-21 02:48N 54°53' E 013°09'413.2
2017-May-21 02:28N 54°54' E 013°16'713.5
2017-May-21 01:58N 54°57' E 013°27'613.3
2017-May-21 01:29N 54°59' E 013°37'613.3
2017-May-21 01:00N 55°01' E 013°48'713.1
2017-May-21 00:29N 55°03' E 013°59'612.7
2017-May-21 00:00N 55°07' E 014°08'713.4
2017-May-20 23:31N 55°12' E 014°15'713.5
2017-May-20 23:00N 55°17' E 014°23'815.9
2017-May-20 22:31N 55°23' E 014°32'816.1
2017-May-20 22:00N 55°29' E 014°42'815.7
2017-May-20 21:30N 55°32' E 014°54'815.6
2017-May-20 21:00N 55°36' E 015°06'815.5
2017-May-20 20:30N 55°40' E 015°18'815.7
2017-May-20 20:00N 55°44' E 015°30'815.5
2017-May-20 19:30N 55°48' E 015°42'815.5
2017-May-20 19:00N 55°52' E 015°54'816.0
2017-May-20 18:30N 55°55' E 016°07'815.8
2017-May-20 18:00N 55°59' E 016°19'816.0
2017-May-20 17:30N 56°03' E 016°31'816.0
2017-May-20 17:00N 56°08' E 016°43'816.2
2017-May-20 16:30N 56°12' E 016°55'816.2
2017-May-20 16:00N 56°17' E 017°07'816.1
2017-May-20 15:30N 56°22' E 017°18'816.1
2017-May-20 15:00N 56°27' E 017°29'816.2
2017-May-20 14:30N 56°32' E 017°41'22416.0
2017-May-20 00:30N 59°23' E 022°15'1016.0
2017-May-19 23:53N 59°29' E 022°31'915.6
2017-May-19 23:19N 59°32' E 022°47'515.8
2017-May-19 23:00N 59°34' E 022°57'815.8
2017-May-19 22:30N 59°36' E 023°12'815.8
2017-May-19 22:00N 59°38' E 023°27'815.7
2017-May-19 21:30N 59°41' E 023°41'815.8
2017-May-19 21:00N 59°43' E 023°56'815.6
2017-May-19 20:30N 59°45' E 024°11'815.6
2017-May-19 20:00N 59°47' E 024°26'4515.3
2017-May-19 17:05N 59°56' E 025°54'115.0
2017-May-19 17:00N 59°57' E 025°56'1014.9
2017-May-19 16:19N 59°59' E 026°16'515.2
2017-May-19 15:59N 60°00' E 026°26'715.1
2017-May-19 15:30N 60°01' E 026°40'815.5
2017-May-19 15:00N 59°60' E 026°55'1514.6
2017-May-19 14:00N 60°05' E 027°22'815.4
2017-May-19 13:30N 60°09' E 027°36'714.8
2017-May-19 13:00N 60°12' E 027°50'915.7
2017-May-19 12:27N 60°09' E 028°06'715.3
2017-May-19 12:00N 60°07' E 028°19'815.4
2017-May-19 11:30N 60°03' E 028°33'815.6
2017-May-19 11:00N 60°03' E 028°48'815.9
2017-May-19 10:30N 60°02' E 029°04'816.0
2017-May-19 10:00N 60°02' E 029°20'510.7
2017-May-19 09:30N 60°01' E 029°31'612.4
2017-May-19 09:01N 59°59' E 029°43'3 5.9
2017-May-19 08:30N 59°56' E 029°43'  

Dump ship's entire track history